sensor_id;sensor_type;location;lat;lon;timestamp;P1;P2;P0
65383;PMS5003;51986;52.788;41.368;2024-01-25T00:00:20;22.00;20.50;17.00
65383;PMS5003;51986;52.788;41.368;2024-01-25T00:02:47;20.00;20.00;16.00
65383;PMS5003;51986;52.788;41.368;2024-01-25T00:05:14;18.00;18.00;15.00
65383;PMS5003;51986;52.788;41.368;2024-01-25T00:07:48;17.00;16.00;14.00
65383;PMS5003;51986;52.788;41.368;2024-01-25T00:10:16;24.25;21.75;18.00
65383;PMS5003;51986;52.788;41.368;2024-01-25T00:12:45;26.00;23.00;18.00
65383;PMS5003;51986;52.788;41.368;2024-01-25T00:15:12;23.50;21.00;18.00
65383;PMS5003;51986;52.788;41.368;2024-01-25T00:17:40;24.00;21.25;18.00
65383;PMS5003;51986;52.788;41.368;2024-01-25T00:20:09;23.25;20.00;17.00
65383;PMS5003;51986;52.788;41.368;2024-01-25T00:22:37;24.25;21.50;18.25
65383;PMS5003;51986;52.788;41.368;2024-01-25T00:25:05;24.00;21.00;18.00
65383;PMS5003;51986;52.788;41.368;2024-01-25T00:27:32;22.75;21.00;18.00
65383;PMS5003;51986;52.788;41.368;2024-01-25T00:29:59;26.25;23.00;19.00
65383;PMS5003;51986;52.788;41.368;2024-01-25T00:32:27;23.50;22.00;18.00
65383;PMS5003;51986;52.788;41.368;2024-01-25T00:34:54;23.00;22.00;18.00
65383;PMS5003;51986;52.788;41.368;2024-01-25T00:37:22;24.50;21.25;18.00
65383;PMS5003;51986;52.788;41.368;2024-01-25T00:39:52;22.00;20.00;16.50
65383;PMS5003;51986;52.788;41.368;2024-01-25T00:42:20;19.00;18.00;15.00
65383;PMS5003;51986;52.788;41.368;2024-01-25T00:44:49;16.00;14.00;14.00
65383;PMS5003;51986;52.788;41.368;2024-01-25T00:47:16;23.25;20.00;16.50
65383;PMS5003;51986;52.788;41.368;2024-01-25T00:49:45;20.00;19.00;15.00
65383;PMS5003;51986;52.788;41.368;2024-01-25T00:52:12;21.00;20.00;16.00
65383;PMS5003;51986;52.788;41.368;2024-01-25T00:54:40;20.25;19.50;16.00
65383;PMS5003;51986;52.788;41.368;2024-01-25T00:57:07;22.50;20.75;17.25
65383;PMS5003;51986;52.788;41.368;2024-01-25T00:59:35;18.50;18.00;15.00
65383;PMS5003;51986;52.788;41.368;2024-01-25T01:02:02;16.00;15.00;13.00
65383;PMS5003;51986;52.788;41.368;2024-01-25T01:04:35;15.00;14.00;12.50
65383;PMS5003;51986;52.788;41.368;2024-01-25T01:07:14;16.00;16.00;13.00
65383;PMS5003;51986;52.788;41.368;2024-01-25T01:09:43;14.00;14.00;12.00
65383;PMS5003;51986;52.788;41.368;2024-01-25T01:12:10;20.00;19.25;15.75
65383;PMS5003;51986;52.788;41.368;2024-01-25T01:14:37;17.00;17.00;14.50
65383;PMS5003;51986;52.788;41.368;2024-01-25T01:17:05;23.25;21.50;18.00
65383;PMS5003;51986;52.788;41.368;2024-01-25T01:19:32;25.00;22.00;18.00
65383;PMS5003;51986;52.788;41.368;2024-01-25T01:22:00;25.00;22.00;18.00
65383;PMS5003;51986;52.788;41.368;2024-01-25T01:24:27;24.25;21.00;18.00
65383;PMS5003;51986;52.788;41.368;2024-01-25T01:26:54;19.50;18.00;15.00
65383;PMS5003;51986;52.788;41.368;2024-01-25T01:29:21;20.50;19.75;16.50
65383;PMS5003;51986;52.788;41.368;2024-01-25T01:31:48;20.00;19.00;17.00
65383;PMS5003;51986;52.788;41.368;2024-01-25T01:34:15;21.75;20.50;17.00
65383;PMS5003;51986;52.788;41.368;2024-01-25T01:36:43;22.25;21.00;18.00
65383;PMS5003;51986;52.788;41.368;2024-01-25T01:42:02;21.00;20.00;16.00
65383;PMS5003;51986;52.788;41.368;2024-01-25T01:44:29;22.00;21.00;17.50
65383;PMS5003;51986;52.788;41.368;2024-01-25T01:46:56;20.00;20.00;16.00
65383;PMS5003;51986;52.788;41.368;2024-01-25T01:49:24;20.00;19.50;16.00
65383;PMS5003;51986;52.788;41.368;2024-01-25T01:51:52;20.25;20.00;16.00
65383;PMS5003;51986;52.788;41.368;2024-01-25T01:54:20;22.00;20.00;17.00
65383;PMS5003;51986;52.788;41.368;2024-01-25T01:56:47;23.00;21.00;18.00
65383;PMS5003;51986;52.788;41.368;2024-01-25T01:59:15;18.00;18.00;15.00
65383;PMS5003;51986;52.788;41.368;2024-01-25T02:01:43;21.25;20.00;16.00
65383;PMS5003;51986;52.788;41.368;2024-01-25T02:04:10;23.25;21.00;18.00
65383;PMS5003;51986;52.788;41.368;2024-01-25T02:06:37;24.00;21.00;18.00
65383;PMS5003;51986;52.788;41.368;2024-01-25T02:09:06;18.75;18.50;15.00
65383;PMS5003;51986;52.788;41.368;2024-01-25T02:11:34;17.00;16.00;14.00
65383;PMS5003;51986;52.788;41.368;2024-01-25T02:14:04;22.75;20.50;16.75
65383;PMS5003;51986;52.788;41.368;2024-01-25T02:16:31;25.50;22.00;18.00
65383;PMS5003;51986;52.788;41.368;2024-01-25T02:18:59;25.75;22.00;18.00
65383;PMS5003;51986;52.788;41.368;2024-01-25T02:21:26;26.00;22.00;18.00
65383;PMS5003;51986;52.788;41.368;2024-01-25T02:23:54;22.00;20.00;16.00
65383;PMS5003;51986;52.788;41.368;2024-01-25T02:26:22;18.00;18.00;14.50
65383;PMS5003;51986;52.788;41.368;2024-01-25T02:28:49;22.75;21.00;17.00
65383;PMS5003;51986;52.788;41.368;2024-01-25T02:31:16;21.00;20.00;16.00
65383;PMS5003;51986;52.788;41.368;2024-01-25T02:33:43;20.00;19.00;15.00
65383;PMS5003;51986;52.788;41.368;2024-01-25T02:36:11;23.75;21.50;17.75
65383;PMS5003;51986;52.788;41.368;2024-01-25T02:38:38;21.00;20.00;16.00
65383;PMS5003;51986;52.788;41.368;2024-01-25T02:41:05;20.00;19.00;16.00
65383;PMS5003;51986;52.788;41.368;2024-01-25T02:43:32;18.00;16.00;14.00
65383;PMS5003;51986;52.788;41.368;2024-01-25T02:45:59;21.50;19.25;15.75
65383;PMS5003;51986;52.788;41.368;2024-01-25T02:48:26;24.00;21.25;17.75
65383;PMS5003;51986;52.788;41.368;2024-01-25T02:50:54;27.50;23.00;18.00
65383;PMS5003;51986;52.788;41.368;2024-01-25T02:53:22;28.00;23.00;18.00
65383;PMS5003;51986;52.788;41.368;2024-01-25T02:55:50;22.00;20.00;16.50
65383;PMS5003;51986;52.788;41.368;2024-01-25T02:58:17;19.50;18.25;15.00
65383;PMS5003;51986;52.788;41.368;2024-01-25T03:00:44;23.00;21.25;17.50
65383;PMS5003;51986;52.788;41.368;2024-01-25T03:03:11;21.00;20.00;16.00
65383;PMS5003;51986;52.788;41.368;2024-01-25T03:05:38;20.25;19.00;16.00
65383;PMS5003;51986;52.788;41.368;2024-01-25T03:08:06;18.00;18.00;14.00
65383;PMS5003;51986;52.788;41.368;2024-01-25T03:10:33;16.00;15.75;14.00
65383;PMS5003;51986;52.788;41.368;2024-01-25T03:13:00;18.00;17.00;14.00
65383;PMS5003;51986;52.788;41.368;2024-01-25T03:15:27;18.00;17.00;14.00
65383;PMS5003;51986;52.788;41.368;2024-01-25T03:17:54;16.00;16.00;13.00
65383;PMS5003;51986;52.788;41.368;2024-01-25T03:20:21;16.00;16.00;13.00
65383;PMS5003;51986;52.788;41.368;2024-01-25T03:22:48;22.25;20.75;16.25
65383;PMS5003;51986;52.788;41.368;2024-01-25T03:25:15;19.75;19.00;15.00
65383;PMS5003;51986;52.788;41.368;2024-01-25T03:27:43;21.00;20.00;16.00
65383;PMS5003;51986;52.788;41.368;2024-01-25T03:30:11;20.00;18.00;15.00
65383;PMS5003;51986;52.788;41.368;2024-01-25T03:32:38;21.25;19.75;15.75
65383;PMS5003;51986;52.788;41.368;2024-01-25T03:35:05;22.00;20.00;16.00
65383;PMS5003;51986;52.788;41.368;2024-01-25T03:37:33;23.00;21.00;17.00
65383;PMS5003;51986;52.788;41.368;2024-01-25T03:40:00;23.00;21.00;17.00
65383;PMS5003;51986;52.788;41.368;2024-01-25T03:42:27;20.50;19.00;16.00
65383;PMS5003;51986;52.788;41.368;2024-01-25T03:44:54;22.25;20.75;16.50
65383;PMS5003;51986;52.788;41.368;2024-01-25T03:47:22;24.00;22.00;18.00
65383;PMS5003;51986;52.788;41.368;2024-01-25T03:49:49;24.00;22.00;18.00
65383;PMS5003;51986;52.788;41.368;2024-01-25T03:52:16;18.50;18.50;14.00
65383;PMS5003;51986;52.788;41.368;2024-01-25T03:54:43;19.75;19.25;15.25
65383;PMS5003;51986;52.788;41.368;2024-01-25T03:57:10;19.00;18.00;14.50
65383;PMS5003;51986;52.788;41.368;2024-01-25T03:59:37;21.00;18.50;15.50
65383;PMS5003;51986;52.788;41.368;2024-01-25T04:02:05;25.00;22.00;18.00
65383;PMS5003;51986;52.788;41.368;2024-01-25T04:04:32;25.00;22.00;18.00
65383;PMS5003;51986;52.788;41.368;2024-01-25T04:06:59;25.75;22.00;18.00
65383;PMS5003;51986;52.788;41.368;2024-01-25T04:09:26;23.25;21.00;16.00
65383;PMS5003;51986;52.788;41.368;2024-01-25T04:11:54;20.00;18.25;16.00
65383;PMS5003;51986;52.788;41.368;2024-01-25T04:14:22;17.00;17.00;14.25
65383;PMS5003;51986;52.788;41.368;2024-01-25T04:16:49;14.00;14.00;14.00
65383;PMS5003;51986;52.788;41.368;2024-01-25T04:19:16;20.00;19.75;15.00
65383;PMS5003;51986;52.788;41.368;2024-01-25T04:21:44;21.50;20.00;16.00
65383;PMS5003;51986;52.788;41.368;2024-01-25T04:24:11;17.75;17.50;14.00
65383;PMS5003;51986;52.788;41.368;2024-01-25T04:26:38;19.00;18.75;15.50
65383;PMS5003;51986;52.788;41.368;2024-01-25T04:29:06;18.00;18.00;15.00
65383;PMS5003;51986;52.788;41.368;2024-01-25T04:31:33;21.75;20.50;17.75
65383;PMS5003;51986;52.788;41.368;2024-01-25T04:34:00;24.00;21.75;18.00
65383;PMS5003;51986;52.788;41.368;2024-01-25T04:36:28;18.00;18.00;14.00
65383;PMS5003;51986;52.788;41.368;2024-01-25T04:38:55;18.00;17.75;14.00
65383;PMS5003;51986;52.788;41.368;2024-01-25T04:41:22;18.00;18.00;14.00
65383;PMS5003;51986;52.788;41.368;2024-01-25T04:43:49;16.00;16.00;13.00
65383;PMS5003;51986;52.788;41.368;2024-01-25T04:46:16;19.50;19.00;15.00
65383;PMS5003;51986;52.788;41.368;2024-01-25T04:48:43;21.00;20.00;16.00
65383;PMS5003;51986;52.788;41.368;2024-01-25T04:51:17;16.75;16.00;14.00
65383;PMS5003;51986;52.788;41.368;2024-01-25T04:53:45;22.00;20.25;16.25
65383;PMS5003;51986;52.788;41.368;2024-01-25T04:56:12;24.25;22.00;18.00
65383;PMS5003;51986;52.788;41.368;2024-01-25T04:58:39;26.00;22.00;18.00
65383;PMS5003;51986;52.788;41.368;2024-01-25T05:01:06;26.00;22.75;18.00
65383;PMS5003;51986;52.788;41.368;2024-01-25T05:03:34;22.00;21.00;17.00
65383;PMS5003;51986;52.788;41.368;2024-01-25T05:06:01;17.00;17.00;14.00
65383;PMS5003;51986;52.788;41.368;2024-01-25T05:08:29;18.25;18.00;14.25
65383;PMS5003;51986;52.788;41.368;2024-01-25T05:10:56;20.75;20.00;16.00
65383;PMS5003;51986;52.788;41.368;2024-01-25T05:13:23;18.00;16.50;14.00
65383;PMS5003;51986;52.788;41.368;2024-01-25T05:15:50;20.50;19.50;15.50
65383;PMS5003;51986;52.788;41.368;2024-01-25T05:18:17;18.00;16.00;13.00
65383;PMS5003;51986;52.788;41.368;2024-01-25T05:20:44;18.25;17.25;14.00
65383;PMS5003;51986;52.788;41.368;2024-01-25T05:23:11;18.00;17.00;14.00
65383;PMS5003;51986;52.788;41.368;2024-01-25T05:25:39;17.00;17.00;14.00
65383;PMS5003;51986;52.788;41.368;2024-01-25T05:28:06;15.00;15.00;13.00
65383;PMS5003;51986;52.788;41.368;2024-01-25T05:30:33;18.75;18.50;15.25
65383;PMS5003;51986;52.788;41.368;2024-01-25T05:33:01;21.50;20.50;17.00
65383;PMS5003;51986;52.788;41.368;2024-01-25T05:35:28;18.00;17.00;14.00
65383;PMS5003;51986;52.788;41.368;2024-01-25T05:37:56;18.00;16.00;14.00
65383;PMS5003;51986;52.788;41.368;2024-01-25T05:40:23;17.00;16.00;14.00
65383;PMS5003;51986;52.788;41.368;2024-01-25T05:42:50;21.75;20.00;16.00
65383;PMS5003;51986;52.788;41.368;2024-01-25T05:45:17;19.00;19.00;15.00
65383;PMS5003;51986;52.788;41.368;2024-01-25T05:47:45;18.25;18.00;15.00
65383;PMS5003;51986;52.788;41.368;2024-01-25T05:50:12;21.00;20.00;15.00
65383;PMS5003;51986;52.788;41.368;2024-01-25T05:52:40;16.25;16.25;14.00
65383;PMS5003;51986;52.788;41.368;2024-01-25T05:55:07;17.00;16.00;14.00
65383;PMS5003;51986;52.788;41.368;2024-01-25T05:57:35;17.00;16.00;14.00
65383;PMS5003;51986;52.788;41.368;2024-01-25T06:00:03;16.00;16.00;14.00
65383;PMS5003;51986;52.788;41.368;2024-01-25T06:02:33;19.50;18.75;15.50
65383;PMS5003;51986;52.788;41.368;2024-01-25T06:05:00;19.75;18.50;15.00
65383;PMS5003;51986;52.788;41.368;2024-01-25T06:07:28;21.00;20.00;16.00
65383;PMS5003;51986;52.788;41.368;2024-01-25T06:09:55;25.00;22.00;18.00
65383;PMS5003;51986;52.788;41.368;2024-01-25T06:12:23;19.00;18.00;15.00
65383;PMS5003;51986;52.788;41.368;2024-01-25T06:14:50;18.00;16.00;14.00
65383;PMS5003;51986;52.788;41.368;2024-01-25T06:17:17;17.50;16.00;14.00
65383;PMS5003;51986;52.788;41.368;2024-01-25T06:19:44;22.25;20.50;17.00
65383;PMS5003;51986;52.788;41.368;2024-01-25T06:22:12;26.00;23.00;18.50
65383;PMS5003;51986;52.788;41.368;2024-01-25T06:24:39;22.00;21.00;17.00
65383;PMS5003;51986;52.788;41.368;2024-01-25T06:27:06;27.00;22.75;18.50
65383;PMS5003;51986;52.788;41.368;2024-01-25T06:29:33;27.00;23.00;18.00
65383;PMS5003;51986;52.788;41.368;2024-01-25T06:32:00;25.00;22.00;18.00
65383;PMS5003;51986;52.788;41.368;2024-01-25T06:34:36;21.00;18.00;15.00
65383;PMS5003;51986;52.788;41.368;2024-01-25T06:37:04;20.00;19.00;15.00
65383;PMS5003;51986;52.788;41.368;2024-01-25T06:39:31;21.00;20.25;15.00
65383;PMS5003;51986;52.788;41.368;2024-01-25T06:41:58;20.00;19.00;15.00
65383;PMS5003;51986;52.788;41.368;2024-01-25T06:44:26;24.00;22.25;18.25
65383;PMS5003;51986;52.788;41.368;2024-01-25T06:46:54;24.00;22.00;18.00
65383;PMS5003;51986;52.788;41.368;2024-01-25T06:49:21;26.00;23.00;18.00
65383;PMS5003;51986;52.788;41.368;2024-01-25T06:51:48;20.00;19.25;16.00
65383;PMS5003;51986;52.788;41.368;2024-01-25T06:54:16;25.00;21.75;17.75
65383;PMS5003;51986;52.788;41.368;2024-01-25T06:56:43;28.00;24.00;20.00
65383;PMS5003;51986;52.788;41.368;2024-01-25T06:59:10;28.50;24.50;20.00
65383;PMS5003;51986;52.788;41.368;2024-01-25T07:01:37;29.00;25.00;19.00
65383;PMS5003;51986;52.788;41.368;2024-01-25T07:04:05;31.00;25.00;20.00
65383;PMS5003;51986;52.788;41.368;2024-01-25T07:06:33;28.50;23.50;19.00
65383;PMS5003;51986;52.788;41.368;2024-01-25T07:09:00;25.00;21.00;18.00
65383;PMS5003;51986;52.788;41.368;2024-01-25T07:11:27;23.00;21.00;17.00
65383;PMS5003;51986;52.788;41.368;2024-01-25T07:13:54;21.00;19.25;15.00
65383;PMS5003;51986;52.788;41.368;2024-01-25T07:16:21;22.50;20.50;15.00
65383;PMS5003;51986;52.788;41.368;2024-01-25T07:18:49;24.25;21.50;17.00
65383;PMS5003;51986;52.788;41.368;2024-01-25T07:21:17;27.00;23.75;18.00
65383;PMS5003;51986;52.788;41.368;2024-01-25T07:23:44;22.00;20.00;16.00
65383;PMS5003;51986;52.788;41.368;2024-01-25T07:26:16;25.75;23.00;18.25
65383;PMS5003;51986;52.788;41.368;2024-01-25T07:28:44;24.00;22.00;18.00
65383;PMS5003;51986;52.788;41.368;2024-01-25T07:31:11;22.00;21.00;17.00
65383;PMS5003;51986;52.788;41.368;2024-01-25T07:33:38;28.00;24.25;19.00
65383;PMS5003;51986;52.788;41.368;2024-01-25T07:36:05;30.00;24.50;19.75
65383;PMS5003;51986;52.788;41.368;2024-01-25T07:38:33;29.00;24.00;19.00
65383;PMS5003;51986;52.788;41.368;2024-01-25T07:41:00;26.00;22.50;18.00
65383;PMS5003;51986;52.788;41.368;2024-01-25T07:43:27;27.50;23.75;19.50
65383;PMS5003;51986;52.788;41.368;2024-01-25T07:45:54;29.25;25.00;20.00
65383;PMS5003;51986;52.788;41.368;2024-01-25T07:48:21;25.75;23.00;18.50
65383;PMS5003;51986;52.788;41.368;2024-01-25T07:50:49;21.00;21.00;17.00
65383;PMS5003;51986;52.788;41.368;2024-01-25T07:53:16;27.25;24.00;19.00
65383;PMS5003;51986;52.788;41.368;2024-01-25T07:55:43;29.50;25.00;20.00
65383;PMS5003;51986;52.788;41.368;2024-01-25T07:58:10;30.50;26.00;20.00
65383;PMS5003;51986;52.788;41.368;2024-01-25T08:00:38;30.50;27.00;20.75
65383;PMS5003;51986;52.788;41.368;2024-01-25T08:03:05;29.00;25.00;20.00
65383;PMS5003;51986;52.788;41.368;2024-01-25T08:05:32;29.00;25.00;20.00
65383;PMS5003;51986;52.788;41.368;2024-01-25T08:08:13;29.25;25.00;20.00
65383;PMS5003;51986;52.788;41.368;2024-01-25T08:10:40;29.00;25.00;19.25
65383;PMS5003;51986;52.788;41.368;2024-01-25T08:13:08;26.00;22.00;18.00
65383;PMS5003;51986;52.788;41.368;2024-01-25T08:15:35;26.25;23.00;18.25
65383;PMS5003;51986;52.788;41.368;2024-01-25T08:18:02;24.25;22.00;18.00
65383;PMS5003;51986;52.788;41.368;2024-01-25T08:20:30;20.00;20.00;16.50
65383;PMS5003;51986;52.788;41.368;2024-01-25T08:22:58;25.00;22.00;18.00
65383;PMS5003;51986;52.788;41.368;2024-01-25T08:25:25;27.25;23.50;19.00
65383;PMS5003;51986;52.788;41.368;2024-01-25T08:27:52;29.00;24.00;20.00
65383;PMS5003;51986;52.788;41.368;2024-01-25T08:30:20;28.50;25.00;19.00
65383;PMS5003;51986;52.788;41.368;2024-01-25T08:32:47;26.50;23.00;18.00
65383;PMS5003;51986;52.788;41.368;2024-01-25T08:35:15;25.00;21.00;17.00
65383;PMS5003;51986;52.788;41.368;2024-01-25T08:37:43;25.00;21.00;17.00
65383;PMS5003;51986;52.788;41.368;2024-01-25T08:40:10;24.75;21.00;17.00
65383;PMS5003;51986;52.788;41.368;2024-01-25T08:42:38;27.00;23.00;19.00
65383;PMS5003;51986;52.788;41.368;2024-01-25T08:45:05;25.00;23.00;18.00
65383;PMS5003;51986;52.788;41.368;2024-01-25T08:47:44;27.50;23.50;19.00
65383;PMS5003;51986;52.788;41.368;2024-01-25T08:50:12;29.00;25.00;20.00
65383;PMS5003;51986;52.788;41.368;2024-01-25T08:52:39;24.25;22.50;18.00
65383;PMS5003;51986;52.788;41.368;2024-01-25T08:55:06;29.00;25.00;19.50
65383;PMS5003;51986;52.788;41.368;2024-01-25T08:57:34;31.00;25.00;20.00
65383;PMS5003;51986;52.788;41.368;2024-01-25T09:00:02;25.00;22.00;18.00
65383;PMS5003;51986;52.788;41.368;2024-01-25T09:02:29;27.00;23.00;18.00
65383;PMS5003;51986;52.788;41.368;2024-01-25T09:04:56;24.50;21.25;17.00
65383;PMS5003;51986;52.788;41.368;2024-01-25T09:07:24;29.00;25.00;20.00
65383;PMS5003;51986;52.788;41.368;2024-01-25T09:09:51;30.50;26.00;20.00
65383;PMS5003;51986;52.788;41.368;2024-01-25T09:12:18;30.00;26.00;20.00
65383;PMS5003;51986;52.788;41.368;2024-01-25T09:14:45;27.25;23.75;18.25
65383;PMS5003;51986;52.788;41.368;2024-01-25T09:17:12;28.00;23.75;18.50
65383;PMS5003;51986;52.788;41.368;2024-01-25T09:19:40;25.50;22.00;18.00
65383;PMS5003;51986;52.788;41.368;2024-01-25T09:22:08;28.00;24.00;19.00
65383;PMS5003;51986;52.788;41.368;2024-01-25T09:24:36;30.00;25.00;20.00
65383;PMS5003;51986;52.788;41.368;2024-01-25T09:27:03;30.50;25.00;20.00
65383;PMS5003;51986;52.788;41.368;2024-01-25T09:29:30;27.25;23.00;19.00
65383;PMS5003;51986;52.788;41.368;2024-01-25T09:31:58;29.00;24.50;19.00
65383;PMS5003;51986;52.788;41.368;2024-01-25T09:34:26;30.00;24.50;19.50
65383;PMS5003;51986;52.788;41.368;2024-01-25T09:36:53;24.00;21.00;17.00
65383;PMS5003;51986;52.788;41.368;2024-01-25T09:39:20;27.00;23.50;18.50
65383;PMS5003;51986;52.788;41.368;2024-01-25T09:41:48;30.50;25.50;20.00
65383;PMS5003;51986;52.788;41.368;2024-01-25T09:44:15;32.25;27.00;21.00
65383;PMS5003;51986;52.788;41.368;2024-01-25T09:46:43;31.50;26.50;20.00
65383;PMS5003;51986;52.788;41.368;2024-01-25T09:49:11;26.25;23.00;18.00
65383;PMS5003;51986;52.788;41.368;2024-01-25T09:51:40;25.00;22.00;17.00
65383;PMS5003;51986;52.788;41.368;2024-01-25T09:54:08;22.25;21.00;16.00
65383;PMS5003;51986;52.788;41.368;2024-01-25T09:56:36;24.00;21.00;16.00
65383;PMS5003;51986;52.788;41.368;2024-01-25T09:59:04;24.00;20.00;16.50
65383;PMS5003;51986;52.788;41.368;2024-01-25T10:01:32;28.00;24.00;19.00
65383;PMS5003;51986;52.788;41.368;2024-01-25T10:03:59;29.50;25.00;19.00
65383;PMS5003;51986;52.788;41.368;2024-01-25T10:06:27;31.00;26.00;20.75
65383;PMS5003;51986;52.788;41.368;2024-01-25T10:08:54;31.00;26.00;21.00
65383;PMS5003;51986;52.788;41.368;2024-01-25T10:11:21;25.25;23.00;19.00
65383;PMS5003;51986;52.788;41.368;2024-01-25T10:13:49;28.50;25.00;20.00
65383;PMS5003;51986;52.788;41.368;2024-01-25T10:16:17;24.00;21.00;18.00
65383;PMS5003;51986;52.788;41.368;2024-01-25T10:18:48;27.00;23.50;19.00
65383;PMS5003;51986;52.788;41.368;2024-01-25T10:21:17;26.00;22.50;18.00
65383;PMS5003;51986;52.788;41.368;2024-01-25T10:23:45;28.25;24.00;19.75
65383;PMS5003;51986;52.788;41.368;2024-01-25T10:26:13;30.50;25.50;20.00
65383;PMS5003;51986;52.788;41.368;2024-01-25T10:28:40;27.00;23.00;19.00
65383;PMS5003;51986;52.788;41.368;2024-01-25T10:31:08;28.50;23.25;19.00
65383;PMS5003;51986;52.788;41.368;2024-01-25T10:33:36;24.00;22.00;18.00
65383;PMS5003;51986;52.788;41.368;2024-01-25T10:36:06;24.00;21.00;17.00
65383;PMS5003;51986;52.788;41.368;2024-01-25T10:38:35;27.00;23.25;19.00
65383;PMS5003;51986;52.788;41.368;2024-01-25T10:41:04;30.75;26.00;20.00
65383;PMS5003;51986;52.788;41.368;2024-01-25T10:43:32;30.25;26.00;20.00
65383;PMS5003;51986;52.788;41.368;2024-01-25T10:46:00;30.00;25.00;20.00
65383;PMS5003;51986;52.788;41.368;2024-01-25T10:48:30;29.50;25.00;20.00
65383;PMS5003;51986;52.788;41.368;2024-01-25T10:50:58;26.25;23.00;19.00
65383;PMS5003;51986;52.788;41.368;2024-01-25T10:53:26;29.75;25.00;20.00
65383;PMS5003;51986;52.788;41.368;2024-01-25T10:55:55;28.00;23.00;19.00
65383;PMS5003;51986;52.788;41.368;2024-01-25T10:58:23;29.00;23.00;18.00
65383;PMS5003;51986;52.788;41.368;2024-01-25T11:00:56;28.50;24.50;19.00
65383;PMS5003;51986;52.788;41.368;2024-01-25T11:03:27;27.00;23.00;19.00
65383;PMS5003;51986;52.788;41.368;2024-01-25T11:05:55;26.50;23.00;18.00
65383;PMS5003;51986;52.788;41.368;2024-01-25T11:08:32;28.00;24.00;19.00
65383;PMS5003;51986;52.788;41.368;2024-01-25T11:10:59;29.00;24.50;20.00
65383;PMS5003;51986;52.788;41.368;2024-01-25T11:13:26;28.25;23.00;19.00
65383;PMS5003;51986;52.788;41.368;2024-01-25T11:15:54;24.00;21.00;18.00
65383;PMS5003;51986;52.788;41.368;2024-01-25T11:18:24;22.00;20.00;16.00
65383;PMS5003;51986;52.788;41.368;2024-01-25T11:20:52;25.50;22.50;18.25
65383;PMS5003;51986;52.788;41.368;2024-01-25T11:23:19;29.00;24.00;19.00
65383;PMS5003;51986;52.788;41.368;2024-01-25T11:25:47;30.00;25.75;19.25
65383;PMS5003;51986;52.788;41.368;2024-01-25T11:28:14;24.00;21.25;17.00
65383;PMS5003;51986;52.788;41.368;2024-01-25T11:30:42;26.25;22.25;18.50
65383;PMS5003;51986;52.788;41.368;2024-01-25T11:33:10;27.75;22.50;19.00
65383;PMS5003;51986;52.788;41.368;2024-01-25T11:35:38;31.25;26.25;20.75
65383;PMS5003;51986;52.788;41.368;2024-01-25T11:38:05;25.00;21.75;17.50
65383;PMS5003;51986;52.788;41.368;2024-01-25T11:40:32;22.00;20.00;16.00
65383;PMS5003;51986;52.788;41.368;2024-01-25T11:43:04;20.00;19.25;15.00
65383;PMS5003;51986;52.788;41.368;2024-01-25T11:45:32;20.50;19.25;15.00
65383;PMS5003;51986;52.788;41.368;2024-01-25T11:47:59;23.00;21.00;15.00
65383;PMS5003;51986;52.788;41.368;2024-01-25T11:50:26;24.00;21.00;16.00
65383;PMS5003;51986;52.788;41.368;2024-01-25T11:52:55;25.75;22.50;17.50
65383;PMS5003;51986;52.788;41.368;2024-01-25T11:55:23;29.50;24.00;19.00
65383;PMS5003;51986;52.788;41.368;2024-01-25T11:57:50;28.00;24.00;19.00
65383;PMS5003;51986;52.788;41.368;2024-01-25T12:00:17;22.50;20.75;17.00
65383;PMS5003;51986;52.788;41.368;2024-01-25T12:02:45;19.00;18.00;15.00
65383;PMS5003;51986;52.788;41.368;2024-01-25T12:05:12;24.75;22.00;18.00
65383;PMS5003;51986;52.788;41.368;2024-01-25T12:07:40;22.00;20.50;17.00
65383;PMS5003;51986;52.788;41.368;2024-01-25T12:10:08;28.00;23.00;18.00
65383;PMS5003;51986;52.788;41.368;2024-01-25T12:12:41;28.00;23.00;18.50
65383;PMS5003;51986;52.788;41.368;2024-01-25T12:15:09;21.75;19.25;15.25
65383;PMS5003;51986;52.788;41.368;2024-01-25T12:17:36;24.00;21.50;18.00
65383;PMS5003;51986;52.788;41.368;2024-01-25T12:20:03;18.00;18.00;15.00
65383;PMS5003;51986;52.788;41.368;2024-01-25T12:22:31;23.00;21.00;17.25
65383;PMS5003;51986;52.788;41.368;2024-01-25T12:25:02;29.25;24.50;20.00
65383;PMS5003;51986;52.788;41.368;2024-01-25T12:27:34;25.75;22.00;19.00
65383;PMS5003;51986;52.788;41.368;2024-01-25T12:30:01;28.25;24.00;19.75
65383;PMS5003;51986;52.788;41.368;2024-01-25T12:32:28;27.00;24.00;20.00
65383;PMS5003;51986;52.788;41.368;2024-01-25T12:34:56;23.00;21.00;17.00
65383;PMS5003;51986;52.788;41.368;2024-01-25T12:37:24;27.00;23.00;18.00
65383;PMS5003;51986;52.788;41.368;2024-01-25T12:39:52;21.00;19.50;15.50
65383;PMS5003;51986;52.788;41.368;2024-01-25T12:42:21;19.50;19.00;15.00
65383;PMS5003;51986;52.788;41.368;2024-01-25T12:44:51;25.50;22.50;18.00
65383;PMS5003;51986;52.788;41.368;2024-01-25T12:47:19;20.00;19.00;16.00
65383;PMS5003;51986;52.788;41.368;2024-01-25T12:49:47;24.50;22.50;17.50
65383;PMS5003;51986;52.788;41.368;2024-01-25T12:52:15;25.00;22.00;18.00
65383;PMS5003;51986;52.788;41.368;2024-01-25T12:54:43;26.00;23.00;18.00
65383;PMS5003;51986;52.788;41.368;2024-01-25T12:57:10;21.75;20.00;16.00
65383;PMS5003;51986;52.788;41.368;2024-01-25T12:59:38;25.50;22.25;18.50
65383;PMS5003;51986;52.788;41.368;2024-01-25T13:02:05;27.75;24.00;19.50
65383;PMS5003;51986;52.788;41.368;2024-01-25T13:04:34;22.00;20.00;17.00
65383;PMS5003;51986;52.788;41.368;2024-01-25T13:07:02;21.75;20.75;16.00
65383;PMS5003;51986;52.788;41.368;2024-01-25T13:09:29;17.00;17.00;14.00
65383;PMS5003;51986;52.788;41.368;2024-01-25T13:11:56;17.75;16.00;14.00
65383;PMS5003;51986;52.788;41.368;2024-01-25T13:14:23;22.00;19.50;16.00
65383;PMS5003;51986;52.788;41.368;2024-01-25T13:16:50;23.00;21.00;17.00
65383;PMS5003;51986;52.788;41.368;2024-01-25T13:19:18;23.00;21.00;17.00
65383;PMS5003;51986;52.788;41.368;2024-01-25T13:21:45;25.00;22.00;18.00
65383;PMS5003;51986;52.788;41.368;2024-01-25T13:24:12;18.00;18.00;14.00
65383;PMS5003;51986;52.788;41.368;2024-01-25T13:26:39;19.50;19.25;15.25
65383;PMS5003;51986;52.788;41.368;2024-01-25T13:29:06;22.25;21.00;17.00
65383;PMS5003;51986;52.788;41.368;2024-01-25T13:31:33;18.00;18.00;15.00
65383;PMS5003;51986;52.788;41.368;2024-01-25T13:34:00;15.75;15.75;14.00
65383;PMS5003;51986;52.788;41.368;2024-01-25T13:36:27;16.00;16.00;14.00
65383;PMS5003;51986;52.788;41.368;2024-01-25T13:38:55;21.25;20.00;16.00